createdAt,value
2023-03-08T19:32:36.885Z,87.60
2023-03-08T19:35:05.355Z,88.30
2023-03-08T19:37:33.227Z,87.90
2023-03-08T19:40:01.614Z,87.40
2023-03-08T19:42:29.734Z,87.00
2023-03-08T19:44:57.652Z,86.70
2023-03-08T19:47:25.559Z,86.40
2023-03-08T19:49:54.788Z,86.70
2023-03-08T19:52:22.779Z,86.90
2023-03-08T19:54:50.622Z,87.50
2023-03-08T19:57:18.492Z,87.80
2023-03-08T19:59:46.377Z,87.90
2023-03-08T20:02:14.722Z,88.10
2023-03-08T20:04:42.636Z,87.90
2023-03-08T20:07:11.918Z,87.70
2023-03-08T20:09:41.396Z,87.70
2023-03-08T20:12:09.710Z,87.90
2023-03-08T20:14:37.641Z,88.00
2023-03-08T20:17:05.943Z,87.90
2023-03-08T20:19:34.177Z,88.00
2023-03-08T20:22:02.168Z,88.20
2023-03-08T20:24:31.430Z,87.70
2023-03-08T20:26:59.716Z,87.50
2023-03-08T20:29:27.656Z,87.60
2023-03-08T20:31:58.214Z,88.10
2023-03-08T20:34:27.033Z,88.10
2023-03-08T20:36:54.921Z,89.10
2023-03-08T20:39:23.569Z,88.40
2023-03-08T20:41:53.731Z,88.40
2023-03-08T20:44:21.662Z,88.00
2023-03-08T20:46:49.897Z,88.30
2023-03-08T20:49:17.758Z,88.20
2023-03-08T20:51:45.764Z,88.30
2023-03-08T20:54:13.626Z,88.30
2023-03-08T20:56:41.477Z,88.00
2023-03-08T20:59:10.922Z,87.90
2023-03-08T21:01:39.606Z,87.80
2023-03-08T21:04:07.779Z,87.80
2023-03-08T21:06:36.189Z,88.30
2023-03-08T21:09:04.742Z,87.90
2023-03-08T21:11:34.024Z,87.80
2023-03-08T21:14:01.934Z,88.00
2023-03-08T21:16:31.678Z,87.90
2023-03-08T21:19:02.309Z,87.90
2023-03-08T21:21:34.052Z,88.30
2023-03-08T21:24:04.531Z,88.00
2023-03-08T21:26:33.934Z,88.10
2023-03-08T21:29:03.260Z,88.50
2023-03-08T21:31:34.155Z,88.40
2023-03-08T21:34:02.869Z,88.30
2023-03-08T21:36:30.827Z,88.30
2023-03-08T21:38:59.586Z,88.30
2023-03-08T21:41:29.746Z,88.30
2023-03-08T21:43:58.294Z,88.30
2023-03-08T21:46:26.675Z,88.10
2023-03-08T21:48:56.532Z,88.20
2023-03-08T21:51:24.851Z,88.00
2023-03-08T21:53:52.726Z,87.90
2023-03-08T21:56:20.817Z,87.80
2023-03-08T21:58:48.726Z,87.70
2023-03-08T22:01:21.204Z,87.60
2023-03-08T22:03:49.223Z,87.50
2023-03-08T22:06:18.785Z,87.40
2023-03-08T22:08:46.653Z,87.50
2023-03-08T22:11:14.942Z,87.40
2023-03-08T22:13:42.875Z,87.30
2023-03-08T22:16:11.079Z,87.30
2023-03-08T22:18:38.942Z,87.30
2023-03-08T22:21:07.039Z,87.20
2023-03-08T22:23:36.245Z,87.20
2023-03-08T22:26:07.826Z,87.10
2023-03-08T22:28:36.058Z,87.00
2023-03-08T22:31:10.357Z,86.90
2023-03-08T22:33:38.536Z,86.90
2023-03-08T22:36:07.957Z,86.90
2023-03-08T22:38:37.905Z,87.10
2023-03-08T22:41:10.656Z,86.60
2023-03-08T22:43:38.590Z,86.90
2023-03-08T22:46:08.608Z,86.70
2023-03-08T22:48:36.490Z,86.80
2023-03-08T22:51:10.765Z,86.90
2023-03-08T22:53:41.314Z,86.80
2023-03-08T22:56:17.541Z,86.60
2023-03-08T22:58:45.515Z,86.80
2023-03-08T23:01:14.946Z,87.30
2023-03-08T23:03:43.086Z,86.90
2023-03-08T23:06:11.046Z,86.80
2023-03-08T23:08:40.475Z,86.90
2023-03-08T23:11:08.390Z,87.10
2023-03-08T23:13:36.474Z,87.00
2023-03-08T23:16:07.299Z,87.10
2023-03-08T23:18:35.408Z,86.70
2023-03-08T23:21:04.717Z,86.50
2023-03-08T23:23:33.090Z,86.30
2023-03-08T23:26:04.525Z,86.10
2023-03-08T23:28:35.251Z,85.80
2023-03-08T23:31:03.138Z,85.90
2023-03-08T23:33:31.027Z,85.90
2023-03-08T23:35:58.910Z,85.90
2023-03-08T23:38:26.762Z,86.10
2023-03-08T23:40:54.645Z,86.00
2023-03-08T23:43:23.859Z,86.10
2023-03-08T23:45:51.741Z,86.00
2023-03-08T23:48:19.646Z,85.90
2023-03-08T23:50:47.475Z,85.90
2023-03-08T23:53:15.350Z,85.70
2023-03-08T23:55:43.770Z,85.70
2023-03-08T23:58:11.637Z,85.90
